sensor_id;sensor_type;location;lat;lon;timestamp;pressure;altitude;pressure_sealevel;temperature;humidity
78373;BME280;67656;52.074;4.758;2024-03-06T00:00:02;101910.97;;;5.84;100.00
78373;BME280;67656;52.074;4.758;2024-03-06T00:05:05;101915.31;;;5.82;100.00
78373;BME280;67656;52.074;4.758;2024-03-06T00:10:05;101923.22;;;5.83;100.00
78373;BME280;67656;52.074;4.758;2024-03-06T00:15:06;101933.66;;;5.82;100.00
78373;BME280;67656;52.074;4.758;2024-03-06T00:20:10;101943.31;;;5.88;100.00
78373;BME280;67656;52.074;4.758;2024-03-06T00:25:10;101947.72;;;5.90;100.00
78373;BME280;67656;52.074;4.758;2024-03-06T00:30:11;101945.97;;;5.92;100.00
78373;BME280;67656;52.074;4.758;2024-03-06T00:35:12;101949.53;;;5.97;100.00
78373;BME280;67656;52.074;4.758;2024-03-06T00:40:13;101948.66;;;5.98;100.00
78373;BME280;67656;52.074;4.758;2024-03-06T00:45:13;101952.97;;;5.93;100.00
78373;BME280;67656;52.074;4.758;2024-03-06T00:50:16;101958.22;;;5.90;100.00
78373;BME280;67656;52.074;4.758;2024-03-06T00:55:17;101964.38;;;5.97;100.00
78373;BME280;67656;52.074;4.758;2024-03-06T01:00:17;101969.75;;;6.06;100.00
78373;BME280;67656;52.074;4.758;2024-03-06T01:05:18;101964.53;;;6.09;100.00
78373;BME280;67656;52.074;4.758;2024-03-06T01:10:19;101967.16;;;6.11;100.00
78373;BME280;67656;52.074;4.758;2024-03-06T01:15:19;101974.19;;;6.15;100.00
78373;BME280;67656;52.074;4.758;2024-03-06T01:20:20;101969.81;;;6.15;100.00
78373;BME280;67656;52.074;4.758;2024-03-06T01:25:20;101982.91;;;6.15;100.00
78373;BME280;67656;52.074;4.758;2024-03-06T01:30:21;101982.06;;;6.17;100.00
78373;BME280;67656;52.074;4.758;2024-03-06T01:35:21;101987.28;;;6.17;100.00
78373;BME280;67656;52.074;4.758;2024-03-06T01:40:22;101983.81;;;6.18;100.00
78373;BME280;67656;52.074;4.758;2024-03-06T01:45:22;101986.41;;;6.14;100.00
78373;BME280;67656;52.074;4.758;2024-03-06T01:50:22;101984.63;;;6.10;100.00
78373;BME280;67656;52.074;4.758;2024-03-06T01:55:23;101978.50;;;6.08;100.00
78373;BME280;67656;52.074;4.758;2024-03-06T02:00:23;101997.69;;;6.07;100.00
78373;BME280;67656;52.074;4.758;2024-03-06T02:05:24;101992.41;;;6.03;100.00
78373;BME280;67656;52.074;4.758;2024-03-06T02:10:26;102001.06;;;5.97;100.00
78373;BME280;67656;52.074;4.758;2024-03-06T02:15:27;101997.56;;;5.96;100.00
78373;BME280;67656;52.074;4.758;2024-03-06T02:20:27;102005.38;;;5.92;100.00
78373;BME280;67656;52.074;4.758;2024-03-06T02:25:28;102002.63;;;5.81;100.00
78373;BME280;67656;52.074;4.758;2024-03-06T02:30:28;102004.34;;;5.77;100.00
78373;BME280;67656;52.074;4.758;2024-03-06T02:35:29;102000.81;;;5.75;100.00
78373;BME280;67656;52.074;4.758;2024-03-06T02:40:33;102005.22;;;5.76;100.00
78373;BME280;67656;52.074;4.758;2024-03-06T02:45:33;102006.06;;;5.75;100.00
78373;BME280;67656;52.074;4.758;2024-03-06T02:50:34;102007.81;;;5.73;100.00
78373;BME280;67656;52.074;4.758;2024-03-06T02:55:34;102009.53;;;5.74;100.00
78373;BME280;67656;52.074;4.758;2024-03-06T03:00:35;102011.28;;;5.72;100.00
78373;BME280;67656;52.074;4.758;2024-03-06T03:05:35;102006.06;;;5.72;100.00
78373;BME280;67656;52.074;4.758;2024-03-06T03:10:36;102013.94;;;5.75;100.00
78373;BME280;67656;52.074;4.758;2024-03-06T03:15:37;102008.53;;;5.60;100.00
78373;BME280;67656;52.074;4.758;2024-03-06T03:20:37;102019.88;;;5.62;100.00
78373;BME280;67656;52.074;4.758;2024-03-06T03:25:38;102017.22;;;5.56;100.00
78373;BME280;67656;52.074;4.758;2024-03-06T03:30:39;102016.28;;;5.50;100.00
78373;BME280;67656;52.074;4.758;2024-03-06T03:35:39;102017.03;;;5.40;100.00
78373;BME280;67656;52.074;4.758;2024-03-06T03:40:39;102016.06;;;5.33;100.00
78373;BME280;67656;52.074;4.758;2024-03-06T03:45:40;102026.53;;;5.32;100.00
78373;BME280;67656;52.074;4.758;2024-03-06T03:50:40;102039.56;;;5.29;100.00
78373;BME280;67656;52.074;4.758;2024-03-06T03:55:41;102032.63;;;5.29;100.00
78373;BME280;67656;52.074;4.758;2024-03-06T04:00:42;102037.75;;;5.23;100.00
78373;BME280;67656;52.074;4.758;2024-03-06T04:05:42;102030.69;;;5.16;100.00
78373;BME280;67656;52.074;4.758;2024-03-06T04:10:43;102048.97;;;5.14;100.00
78373;BME280;67656;52.074;4.758;2024-03-06T04:15:44;102034.97;;;5.09;100.00
78373;BME280;67656;52.074;4.758;2024-03-06T04:20:44;102043.59;;;5.03;100.00
78373;BME280;67656;52.074;4.758;2024-03-06T04:25:45;102049.63;;;4.99;100.00
78373;BME280;67656;52.074;4.758;2024-03-06T04:30:45;102055.63;;;4.92;100.00
78373;BME280;67656;52.074;4.758;2024-03-06T04:35:47;102071.22;;;4.84;100.00
78373;BME280;67656;52.074;4.758;2024-03-06T04:40:48;102072.03;;;4.80;100.00
78373;BME280;67656;52.074;4.758;2024-03-06T04:45:48;102075.31;;;4.68;100.00
78373;BME280;67656;52.074;4.758;2024-03-06T04:50:49;102079.47;;;4.55;100.00
78373;BME280;67656;52.074;4.758;2024-03-06T04:55:49;102080.19;;;4.46;100.00
78373;BME280;67656;52.074;4.758;2024-03-06T05:00:50;102089.66;;;4.40;100.00
78373;BME280;67656;52.074;4.758;2024-03-06T05:05:51;102092.97;;;4.31;100.00
78373;BME280;67656;52.074;4.758;2024-03-06T05:10:51;102097.88;;;4.12;100.00
78373;BME280;67656;52.074;4.758;2024-03-06T05:15:52;102102.19;;;4.12;100.00
78373;BME280;67656;52.074;4.758;2024-03-06T05:20:53;102096.91;;;4.07;100.00
78373;BME280;67656;52.074;4.758;2024-03-06T05:25:56;102094.19;;;4.03;100.00
78373;BME280;67656;52.074;4.758;2024-03-06T05:30:56;102108.56;;;3.80;100.00
78373;BME280;67656;52.074;4.758;2024-03-06T05:35:57;102105.78;;;3.73;100.00
78373;BME280;67656;52.074;4.758;2024-03-06T05:40:57;102110.00;;;3.66;100.00
78373;BME280;67656;52.074;4.758;2024-03-06T05:45:58;102124.72;;;3.62;100.00
78373;BME280;67656;52.074;4.758;2024-03-06T05:50:58;102134.03;;;3.51;100.00
78373;BME280;67656;52.074;4.758;2024-03-06T05:55:59;102143.44;;;3.43;100.00
78373;BME280;67656;52.074;4.758;2024-03-06T06:01:15;102145.63;;;3.24;100.00
78373;BME280;67656;52.074;4.758;2024-03-06T06:06:17;102158.63;;;3.21;100.00
78373;BME280;67656;52.074;4.758;2024-03-06T06:11:18;102163.75;;;3.18;100.00
78373;BME280;67656;52.074;4.758;2024-03-06T06:16:18;102175.78;;;3.13;100.00
78373;BME280;67656;52.074;4.758;2024-03-06T06:21:19;102187.91;;;3.11;100.00
78373;BME280;67656;52.074;4.758;2024-03-06T06:26:19;102187.81;;;3.06;100.00
78373;BME280;67656;52.074;4.758;2024-03-06T06:31:20;102202.72;;;3.12;100.00
78373;BME280;67656;52.074;4.758;2024-03-06T06:36:20;102206.66;;;2.94;100.00
78373;BME280;67656;52.074;4.758;2024-03-06T06:41:21;102213.53;;;2.92;100.00
78373;BME280;67656;52.074;4.758;2024-03-06T06:46:21;102232.13;;;3.04;100.00
78373;BME280;67656;52.074;4.758;2024-03-06T06:51:22;102236.31;;;2.99;100.00
78373;BME280;67656;52.074;4.758;2024-03-06T06:56:22;102239.13;;;3.07;100.00
78373;BME280;67656;52.074;4.758;2024-03-06T07:01:23;102249.13;;;3.25;100.00
78373;BME280;67656;52.074;4.758;2024-03-06T07:06:23;102258.06;;;3.33;100.00
78373;BME280;67656;52.074;4.758;2024-03-06T07:11:24;102260.06;;;3.44;100.00
78373;BME280;67656;52.074;4.758;2024-03-06T07:16:24;102275.00;;;3.51;100.00
78373;BME280;67656;52.074;4.758;2024-03-06T07:21:25;102274.72;;;3.75;100.00
78373;BME280;67656;52.074;4.758;2024-03-06T07:26:26;102296.63;;;3.82;100.00
78373;BME280;67656;52.074;4.758;2024-03-06T07:31:26;102296.09;;;3.97;100.00
78373;BME280;67656;52.074;4.758;2024-03-06T07:36:27;102290.69;;;4.29;100.00
78373;BME280;67656;52.074;4.758;2024-03-06T07:41:28;102302.56;;;4.54;100.00
78373;BME280;67656;52.074;4.758;2024-03-06T07:46:28;102306.44;;;4.75;100.00
78373;BME280;67656;52.074;4.758;2024-03-06T07:51:29;102321.03;;;4.64;100.00
78373;BME280;67656;52.074;4.758;2024-03-06T07:56:30;102315.13;;;4.72;100.00
78373;BME280;67656;52.074;4.758;2024-03-06T08:01:30;102340.06;;;5.01;100.00
78373;BME280;67656;52.074;4.758;2024-03-06T08:06:31;102332.81;;;5.32;100.00
78373;BME280;67656;52.074;4.758;2024-03-06T08:11:31;102334.56;;;5.85;100.00
78373;BME280;67656;52.074;4.758;2024-03-06T08:16:32;102342.13;;;6.22;100.00
78373;BME280;67656;52.074;4.758;2024-03-06T08:21:32;102346.03;;;7.32;100.00
78373;BME280;67656;52.074;4.758;2024-03-06T08:26:33;102330.06;;;7.09;100.00
78373;BME280;67656;52.074;4.758;2024-03-06T08:31:35;102333.97;;;7.51;100.00
78373;BME280;67656;52.074;4.758;2024-03-06T08:36:36;102332.66;;;8.10;100.00
78373;BME280;67656;52.074;4.758;2024-03-06T08:41:36;102315.72;;;7.69;100.00
78373;BME280;67656;52.074;4.758;2024-03-06T08:46:37;102318.94;;;7.37;100.00
78373;BME280;67656;52.074;4.758;2024-03-06T08:51:37;102326.44;;;7.97;100.00
78373;BME280;67656;52.074;4.758;2024-03-06T08:56:38;102321.53;;;7.31;100.00
78373;BME280;67656;52.074;4.758;2024-03-06T09:01:38;102327.81;;;6.63;100.00
78373;BME280;67656;52.074;4.758;2024-03-06T09:06:39;102342.22;;;7.00;100.00
78373;BME280;67656;52.074;4.758;2024-03-06T09:11:42;102347.59;;;7.11;100.00
78373;BME280;67656;52.074;4.758;2024-03-06T09:16:42;102350.09;;;7.00;100.00
78373;BME280;67656;52.074;4.758;2024-03-06T09:21:43;102358.19;;;7.20;100.00
78373;BME280;67656;52.074;4.758;2024-03-06T09:26:44;102360.91;;;7.28;100.00
78373;BME280;67656;52.074;4.758;2024-03-06T09:31:44;102354.00;;;7.40;100.00
78373;BME280;67656;52.074;4.758;2024-03-06T09:36:46;102368.44;;;7.88;100.00
78373;BME280;67656;52.074;4.758;2024-03-06T09:41:47;102365.03;;;8.02;100.00
78373;BME280;67656;52.074;4.758;2024-03-06T09:46:49;102377.47;;;8.27;100.00
78373;BME280;67656;52.074;4.758;2024-03-06T09:51:49;102377.66;;;8.49;100.00
78373;BME280;67656;52.074;4.758;2024-03-06T09:56:50;102381.25;;;8.74;100.00
78373;BME280;67656;52.074;4.758;2024-03-06T10:01:54;102382.25;;;9.11;100.00
78373;BME280;67656;52.074;4.758;2024-03-06T10:06:59;102370.94;;;9.97;100.00
78373;BME280;67656;52.074;4.758;2024-03-06T10:12:00;102361.94;;;10.82;100.00
78373;BME280;67656;52.074;4.758;2024-03-06T10:17:01;102352.25;;;10.78;100.00
78373;BME280;67656;52.074;4.758;2024-03-06T10:22:01;102347.56;;;11.32;100.00
78373;BME280;67656;52.074;4.758;2024-03-06T10:27:06;102356.53;;;11.08;100.00
78373;BME280;67656;52.074;4.758;2024-03-06T10:32:07;102352.69;;;11.52;100.00
78373;BME280;67656;52.074;4.758;2024-03-06T10:37:07;102354.66;;;11.27;100.00
78373;BME280;67656;52.074;4.758;2024-03-06T10:42:09;102355.97;;;11.81;100.00
78373;BME280;67656;52.074;4.758;2024-03-06T10:47:13;102356.28;;;11.41;100.00
78373;BME280;67656;52.074;4.758;2024-03-06T10:52:15;102360.28;;;10.62;100.00
78373;BME280;67656;52.074;4.758;2024-03-06T10:57:20;102372.31;;;11.19;100.00
78373;BME280;67656;52.074;4.758;2024-03-06T11:02:21;102388.16;;;11.22;100.00
78373;BME280;67656;52.074;4.758;2024-03-06T11:07:22;102374.78;;;11.44;100.00
78373;BME280;67656;52.074;4.758;2024-03-06T11:12:35;102373.13;;;11.29;100.00
78373;BME280;67656;52.074;4.758;2024-03-06T11:17:36;102386.25;;;11.44;100.00
78373;BME280;67656;52.074;4.758;2024-03-06T11:28:05;102386.78;;;11.87;100.00
78373;BME280;67656;52.074;4.758;2024-03-06T11:33:06;102387.16;;;11.37;100.00
78373;BME280;67656;52.074;4.758;2024-03-06T11:38:06;102398.72;;;11.22;100.00
78373;BME280;67656;52.074;4.758;2024-03-06T11:43:26;102396.91;;;11.32;100.00
78373;BME280;67656;52.074;4.758;2024-03-06T11:48:27;102394.09;;;11.55;100.00
78373;BME280;67656;52.074;4.758;2024-03-06T11:53:29;102396.03;;;11.28;100.00
78373;BME280;67656;52.074;4.758;2024-03-06T11:58:30;102395.94;;;11.45;100.00
78373;BME280;67656;52.074;4.758;2024-03-06T12:03:31;102385.44;;;11.34;100.00
78373;BME280;67656;52.074;4.758;2024-03-06T12:08:33;102392.38;;;11.49;100.00
78373;BME280;67656;52.074;4.758;2024-03-06T12:13:33;102397.16;;;10.79;100.00
78373;BME280;67656;52.074;4.758;2024-03-06T12:18:34;102402.38;;;10.99;100.00
78373;BME280;67656;52.074;4.758;2024-03-06T12:23:34;102399.66;;;11.12;100.00
78373;BME280;67656;52.074;4.758;2024-03-06T12:28:38;102391.53;;;11.43;100.00
78373;BME280;67656;52.074;4.758;2024-03-06T12:33:42;102391.31;;;11.75;100.00
78373;BME280;67656;52.074;4.758;2024-03-06T12:38:42;102396.50;;;11.88;100.00
78373;BME280;67656;52.074;4.758;2024-03-06T12:43:46;102392.19;;;11.76;100.00
78373;BME280;67656;52.074;4.758;2024-03-06T12:48:49;102390.94;;;12.20;100.00
78373;BME280;67656;52.074;4.758;2024-03-06T12:53:58;102392.38;;;12.52;100.00
78373;BME280;67656;52.074;4.758;2024-03-06T12:59:03;102398.69;;;12.39;100.00
78373;BME280;67656;52.074;4.758;2024-03-06T13:04:03;102392.88;;;11.96;100.00
78373;BME280;67656;52.074;4.758;2024-03-06T13:09:04;102392.56;;;12.34;100.00
78373;BME280;67656;52.074;4.758;2024-03-06T13:14:04;102391.00;;;12.12;100.00
78373;BME280;67656;52.074;4.758;2024-03-06T13:19:04;102396.53;;;12.73;100.00
78373;BME280;67656;52.074;4.758;2024-03-06T13:24:05;102398.06;;;12.15;100.00
78373;BME280;67656;52.074;4.758;2024-03-06T13:29:06;102401.09;;;12.60;100.00
78373;BME280;67656;52.074;4.758;2024-03-06T13:34:07;102395.97;;;12.45;100.00
78373;BME280;67656;52.074;4.758;2024-03-06T13:39:07;102403.25;;;12.24;100.00
78373;BME280;67656;52.074;4.758;2024-03-06T13:44:08;102397.69;;;12.49;100.00
78373;BME280;67656;52.074;4.758;2024-03-06T13:49:33;102402.13;;;12.47;100.00
78373;BME280;67656;52.074;4.758;2024-03-06T13:54:34;102404.00;;;12.37;100.00
78373;BME280;67656;52.074;4.758;2024-03-06T13:59:35;102400.66;;;12.20;100.00
78373;BME280;67656;52.074;4.758;2024-03-06T14:04:35;102406.78;;;12.26;100.00
78373;BME280;67656;52.074;4.758;2024-03-06T14:09:35;102411.03;;;12.40;100.00
78373;BME280;67656;52.074;4.758;2024-03-06T14:14:36;102418.94;;;12.43;100.00
78373;BME280;67656;52.074;4.758;2024-03-06T14:19:36;102415.31;;;12.53;100.00
78373;BME280;67656;52.074;4.758;2024-03-06T14:24:37;102418.41;;;12.07;100.00
78373;BME280;67656;52.074;4.758;2024-03-06T14:29:37;102425.22;;;12.34;100.00
78373;BME280;67656;52.074;4.758;2024-03-06T14:34:38;102423.41;;;12.38;100.00
78373;BME280;67656;52.074;4.758;2024-03-06T14:39:38;102428.63;;;12.47;100.00
78373;BME280;67656;52.074;4.758;2024-03-06T14:44:39;102432.38;;;12.23;100.00
78373;BME280;67656;52.074;4.758;2024-03-06T14:49:43;102423.75;;;11.97;100.00
78373;BME280;67656;52.074;4.758;2024-03-06T14:54:43;102427.13;;;12.20;100.00
78373;BME280;67656;52.074;4.758;2024-03-06T14:59:44;102431.63;;;12.10;100.00
78373;BME280;67656;52.074;4.758;2024-03-06T15:04:44;102422.94;;;11.89;100.00
78373;BME280;67656;52.074;4.758;2024-03-06T15:09:45;102431.59;;;12.11;100.00
78373;BME280;67656;52.074;4.758;2024-03-06T15:14:45;102436.91;;;12.10;100.00
78373;BME280;67656;52.074;4.758;2024-03-06T15:19:46;102430.53;;;12.33;100.00
78373;BME280;67656;52.074;4.758;2024-03-06T15:24:46;102442.09;;;12.22;100.00
78373;BME280;67656;52.074;4.758;2024-03-06T15:29:46;102437.78;;;12.10;100.00
78373;BME280;67656;52.074;4.758;2024-03-06T15:35:04;102438.78;;;11.92;100.00
78373;BME280;67656;52.074;4.758;2024-03-06T15:40:08;102433.91;;;11.33;100.00
78373;BME280;67656;52.074;4.758;2024-03-06T15:45:11;102437.41;;;11.32;100.00
78373;BME280;67656;52.074;4.758;2024-03-06T15:50:12;102439.09;;;11.49;100.00
78373;BME280;67656;52.074;4.758;2024-03-06T15:55:12;102437.34;;;11.48;100.00
78373;BME280;67656;52.074;4.758;2024-03-06T16:00:13;102442.59;;;11.56;100.00
78373;BME280;67656;52.074;4.758;2024-03-06T16:05:13;102437.00;;;11.91;100.00
78373;BME280;67656;52.074;4.758;2024-03-06T16:10:14;102448.81;;;11.45;100.00
78373;BME280;67656;52.074;4.758;2024-03-06T16:15:17;102462.19;;;11.10;100.00
78373;BME280;67656;52.074;4.758;2024-03-06T16:20:18;102452.56;;;10.98;100.00
78373;BME280;67656;52.074;4.758;2024-03-06T16:25:18;102457.84;;;10.96;100.00
78373;BME280;67656;52.074;4.758;2024-03-06T16:30:19;102465.78;;;10.96;100.00
78373;BME280;67656;52.074;4.758;2024-03-06T16:35:26;102474.66;;;10.70;100.00
78373;BME280;67656;52.074;4.758;2024-03-06T16:40:31;102476.41;;;10.68;100.00
78373;BME280;67656;52.074;4.758;2024-03-06T16:45:45;102479.06;;;10.59;100.00
78373;BME280;67656;52.074;4.758;2024-03-06T16:51:02;102487.00;;;10.34;100.00
78373;BME280;67656;52.074;4.758;2024-03-06T16:56:05;102486.13;;;10.18;100.00
78373;BME280;67656;52.074;4.758;2024-03-06T17:07:07;102497.50;;;9.78;100.00
78373;BME280;67656;52.074;4.758;2024-03-06T17:12:07;102497.47;;;9.55;100.00
78373;BME280;67656;52.074;4.758;2024-03-06T17:17:09;102510.59;;;9.43;100.00
78373;BME280;67656;52.074;4.758;2024-03-06T17:22:09;102513.13;;;9.21;100.00
78373;BME280;67656;52.074;4.758;2024-03-06T17:27:10;102519.13;;;8.90;100.00
78373;BME280;67656;52.074;4.758;2024-03-06T17:32:17;102533.84;;;8.60;100.00
78373;BME280;67656;52.074;4.758;2024-03-06T17:37:29;102543.53;;;8.66;100.00
78373;BME280;67656;52.074;4.758;2024-03-06T17:42:32;102546.16;;;8.63;100.00
78373;BME280;67656;52.074;4.758;2024-03-06T17:47:36;102551.06;;;8.27;100.00
78373;BME280;67656;52.074;4.758;2024-03-06T17:52:42;102549.19;;;8.14;100.00
78373;BME280;67656;52.074;4.758;2024-03-06T17:57:48;102560.44;;;8.00;100.00
78373;BME280;67656;52.074;4.758;2024-03-06T18:02:49;102566.63;;;8.03;100.00
78373;BME280;67656;52.074;4.758;2024-03-06T18:07:50;102567.56;;;8.09;100.00
78373;BME280;67656;52.074;4.758;2024-03-06T18:12:50;102578.03;;;8.03;100.00
78373;BME280;67656;52.074;4.758;2024-03-06T18:17:51;102579.66;;;7.93;100.00
78373;BME280;67656;52.074;4.758;2024-03-06T18:22:51;102590.97;;;7.84;100.00
78373;BME280;67656;52.074;4.758;2024-03-06T18:27:54;102593.56;;;7.83;100.00
78373;BME280;67656;52.074;4.758;2024-03-06T18:32:55;102585.97;;;8.08;100.00
78373;BME280;67656;52.074;4.758;2024-03-06T18:37:55;102593.84;;;8.09;100.00
78373;BME280;67656;52.074;4.758;2024-03-06T18:42:56;102594.69;;;8.04;100.00
78373;BME280;67656;52.074;4.758;2024-03-06T18:47:58;102604.19;;;7.91;100.00
78373;BME280;67656;52.074;4.758;2024-03-06T18:53:03;102605.88;;;7.86;100.00
78373;BME280;67656;52.074;4.758;2024-03-06T18:58:06;102628.50;;;7.73;100.00
78373;BME280;67656;52.074;4.758;2024-03-06T19:04:20;102623.00;;;7.52;100.00
78373;BME280;67656;52.074;4.758;2024-03-06T19:33:56;102649.84;;;7.31;100.00
78373;BME280;67656;52.074;4.758;2024-03-06T19:39:05;102656.66;;;7.20;100.00
78373;BME280;67656;52.074;4.758;2024-03-06T19:44:15;102660.16;;;7.19;100.00
78373;BME280;67656;52.074;4.758;2024-03-06T19:50:06;102651.19;;;7.04;100.00
78373;BME280;67656;52.074;4.758;2024-03-06T19:55:25;102667.06;;;7.14;100.00
78373;BME280;67656;52.074;4.758;2024-03-06T20:06:31;102667.69;;;6.97;100.00
78373;BME280;67656;52.074;4.758;2024-03-06T20:17:24;102670.84;;;6.76;100.00
78373;BME280;67656;52.074;4.758;2024-03-06T20:23:02;102679.56;;;6.73;100.00
78373;BME280;67656;52.074;4.758;2024-03-06T20:46:36;102690.22;;;6.35;100.00
78373;BME280;67656;52.074;4.758;2024-03-06T21:04:15;102687.00;;;6.06;100.00
78373;BME280;67656;52.074;4.758;2024-03-06T21:16:15;102694.22;;;5.76;100.00
78373;BME280;67656;52.074;4.758;2024-03-06T21:28:32;102698.69;;;5.42;100.00
78373;BME280;67656;52.074;4.758;2024-03-06T21:40:11;102711.63;;;4.99;100.00
78373;BME280;67656;52.074;4.758;2024-03-06T21:45:17;102717.78;;;5.01;100.00
78373;BME280;67656;52.074;4.758;2024-03-06T21:57:01;102720.63;;;4.75;100.00
78373;BME280;67656;52.074;4.758;2024-03-06T22:08:33;102726.13;;;4.53;100.00
78373;BME280;67656;52.074;4.758;2024-03-06T22:14:05;102730.94;;;4.39;100.00
78373;BME280;67656;52.074;4.758;2024-03-06T22:19:44;102739.00;;;4.46;100.00
78373;BME280;67656;52.074;4.758;2024-03-06T22:25:27;102734.25;;;4.32;100.00
78373;BME280;67656;52.074;4.758;2024-03-06T22:36:39;102742.91;;;4.30;100.00
78373;BME280;67656;52.074;4.758;2024-03-06T23:18:11;102759.72;;;4.10;100.00
78373;BME280;67656;52.074;4.758;2024-03-06T23:24:42;102759.66;;;4.07;100.00
